Flight Track Log - Related Links

Times and Time Zones

All times are in EST time to prevent confusion due to time zone crossing. See the UPS2054 flight status page for this flight to view local times or setup timezone preferences in your user account.

Time Position Orientation Groundspeed Altitude Reporting Facility
EST Latitude Longitude Course Direction KTS MPH feet Rate Location/Type
Tue 05:01:13 PM 38.2500 -85.8000 99° East 240 276 4,600  Level Louisville TRACON
Tue 05:02:31 PM 38.3169 -85.7636 23° Northeast 256 295 8,000 2,271 Climbing Indianapolis Center
Tue 05:03:33 PM 38.2900 -85.6719 111° Southeast 283 326 9,900 1,790 Climbing Indianapolis Center
Tue 05:04:35 PM 38.2492 -85.5686 117° Southeast 325 374 11,700 2,468 Climbing Indianapolis Center
Tue 05:05:37 PM 38.2458 -85.4397 92° East 369 425 15,000 3,387 Climbing Indianapolis Center
Tue 05:06:00 PM 38.0219 -84.9072 99° East  Level FlightAware Approximate
Tue 05:06:39 PM 38.2511 -85.2711 88° East 396 456 18,700  Level Indianapolis Center
Tue 05:07:41 PM 38.2433 -85.1300 94° East 418 481 21,300 2,565 Climbing Indianapolis Center
Tue 05:08:43 PM 38.2333 -84.9744 95° East 437 503 24,000 2,304 Climbing Indianapolis Center
Tue 05:09:46 PM 38.2222 -84.8111 95° East 459 528 26,100 2,208 Climbing Indianapolis Center
Tue 05:10:48 PM 38.2289 -84.6078 88° East 487 560 28,600 2,613 Climbing Indianapolis Center
Tue 05:11:50 PM 38.2378 -84.4333 86° East 493 567 31,500 2,419 Climbing Indianapolis Center
Tue 05:12:52 PM 38.2458 -84.2619 87° East 487 560 33,600 1,694 Climbing Indianapolis Center
Tue 05:13:54 PM 38.2561 -84.0906 86° East 485 558 35,000 677 Climbing Indianapolis Center
Tue 05:14:56 PM 38.2639 -83.9150 87° East 494 568 35,000  Level Indianapolis Center
Tue 05:15:58 PM 38.2744 -83.7122 86° East 491 565 35,000  Level Indianapolis Center
Tue 05:17:00 PM 38.2817 -83.5403 87° East 487 560 35,000  Level Indianapolis Center
Tue 05:18:02 PM 38.2892 -83.3681 87° East 486 559 35,000  Level Indianapolis Center
Tue 05:19:04 PM 38.3089 -83.1986 82° East 483 556 35,000  Level Indianapolis Center
Tue 05:20:06 PM 38.3389 -83.0308 77° East 484 557 35,000  Level Indianapolis Center
Tue 05:21:08 PM 38.3864 -82.8733 69° East 483 556 35,000  Level Indianapolis Center
Tue 05:22:10 PM 38.4697 -82.7033 58° Northeast 482 555 35,000  Level Indianapolis Center
Tue 05:23:12 PM 38.5414 -82.5594 57° Northeast 479 551 35,000  Level Indianapolis Center
Tue 05:24:15 PM 38.6111 -82.4178 58° Northeast 483 556 35,000  Level Indianapolis Center
Tue 05:25:17 PM 38.6839 -82.2739 57° Northeast 480 552 35,000  Level Indianapolis Center
Tue 05:26:19 PM 38.7586 -82.1272 57° Northeast 486 559 35,000  Level Indianapolis Center
Tue 05:27:21 PM 38.8339 -81.9819 56° Northeast 486 559 35,000  Level Indianapolis Center
Tue 05:28:23 PM 38.9086 -81.8339 57° Northeast 486 559 35,000  Level Indianapolis Center
Tue 05:29:25 PM 38.9839 -81.6853 57° Northeast 490 564 35,000  Level Indianapolis Center
Tue 05:30:27 PM 39.0736 -81.5075 57° Northeast 488 562 35,000  Level Indianapolis Center
Tue 05:31:29 PM 39.1481 -81.3597 57° Northeast 487 560 35,000  Level Indianapolis Center
Tue 05:32:31 PM 39.2222 -81.2092 58° Northeast 494 568 35,000  Level Indianapolis Center
Tue 05:33:33 PM 39.2961 -81.0606 57° Northeast 490 564 35,000  Level Indianapolis Center
Tue 05:34:35 PM 39.3689 -80.9128 57° Northeast 487 560 35,000  Level Indianapolis Center
Tue 05:35:37 PM 39.4247 -80.7472 66° East 497 572 35,000  Level Indianapolis Center
Tue 05:36:39 PM 39.4811 -80.5856 66° East 493 567 35,000  Level Indianapolis Center
Tue 05:37:41 PM 39.5383 -80.4228 65° Northeast 493 567 35,000  Level Indianapolis Center
Tue 05:38:43 PM 39.6228 -80.2417 59° Northeast 487 560 35,000  Level Indianapolis Center
Tue 05:39:41 PM 39.6914 -80.1264 52° Northeast 487 560 35,000  Level Cleveland Center
Tue 05:40:43 PM 39.7733 -79.9881 52° Northeast 486 559 35,000  Level Cleveland Center
Tue 05:43:47 PM 40.0417 -79.5305 52° Northeast 481 554 35,000  Level FlightAware ADS-B (KWWD)
Tue 05:44:51 PM 40.1144 -79.4064 52° Northeast 483 556 35,000  Level Cleveland Center
Tue 05:45:54 PM 40.1933 -79.2681 53° Northeast 478 550 35,000  Level Cleveland Center
Tue 05:46:56 PM 40.2897 -79.1022 53° Northeast 479 551 35,000  Level Cleveland Center
Tue 05:47:58 PM 40.3689 -78.9625 53° Northeast 480 552 35,000  Level Cleveland Center
Tue 05:49:00 PM 40.4478 -78.8236 53° Northeast 480 552 35,000  Level Cleveland Center
Tue 05:50:02 PM 40.5278 -78.6844 53° Northeast 481 554 35,000  Level Cleveland Center
Tue 05:51:04 PM 40.6058 -78.5461 53° Northeast 478 550 35,000  Level Cleveland Center
Tue 05:52:06 PM 40.7000 -78.3781 53° Northeast 479 551 35,000  Level Cleveland Center
Tue 05:57:55 PM 41.1315 -77.5079 53° Northeast 489 563 35,000  Level FlightAware ADS-B (KWWD)
Tue 05:58:36 PM 41.1790 -77.4000 60° Northeast 489 563 35,000  Level FlightAware ADS-B (KWWD)
Tue 05:59:07 PM 41.2141 -77.3201 60° Northeast 487 560 35,000  Level FlightAware ADS-B (KWWD)
Tue 05:59:37 PM 41.2481 -77.2424 60° Northeast 491 565 35,000  Level FlightAware ADS-B (KWWD)
Tue 06:00:14 PM 41.2901 -77.1462 60° Northeast 492 566 35,000  Level FlightAware ADS-B (KWWD)
Tue 06:02:21 PM 41.4336 -76.8148 60° Northeast 492 566 35,000  Level FlightAware ADS-B (KWWD)
Tue 06:05:30 PM 41.6481 -76.3125 60° Northeast 495 570 35,000  Level FlightAware ADS-B (KWWD)
Tue 06:06:15 PM 41.6985 -76.1932 60° Northeast 495 570 35,000  Level FlightAware ADS-B (KWWD)
Tue 06:07:38 PM 41.7902 -75.9749 61° Northeast 495 570 35,000  Level FlightAware ADS-B (KWWD)
Tue 06:08:08 PM 41.8238 -75.8945 61° Northeast 491 565 35,000  Level FlightAware ADS-B (KWWD)
Tue 06:09:45 PM 41.9305 -75.6380 61° Northeast 485 558 35,000  Level FlightAware ADS-B (KWWD)
Tue 06:10:33 PM 41.9756 -75.5292 61° Northeast 489 563 35,000  Level Boston Center
Tue 06:12:34 PM 42.1106 -75.2133 60° Northeast 486 559 35,000 -196 Level Boston Center
Tue 06:13:37 PM 42.1842 -75.0692 55° Northeast 474 545 34,400 -726 Descending Boston Center
Tue 06:14:38 PM 42.2747 -74.9456 45° Northeast 464 534 33,500 -942 Descending Boston Center
Tue 06:15:38 PM 42.3814 -74.8006 45° Northeast 452 520 32,500 -774 Descending Boston Center
Tue 06:16:42 PM 42.4678 -74.6817 45° Northeast 442 509 31,900 -629 Descending Boston Center
Tue 06:17:42 PM 42.5486 -74.5597 48° Northeast 445 512 31,200 -1,100 Descending Boston Center
Tue 06:18:42 PM 42.5961 -74.3983 68° East 491 565 29,700 -1,382 Descending Boston Center
Tue 06:23:38 PM 42.6873 -73.5070 68° East 446 513 23,000 -1,754 Descending FlightAware ADS-B (SBBR / BSB)
Tue 06:24:31 PM 42.7014 -73.3569 83° East 438 504 19,500 -2,202 Descending FlightAware ADS-B (SBBR / BSB)
Tue 06:25:27 PM 42.7154 -73.2038 83° East 438 504 19,000 -303 Descending FlightAware ADS-B (SBBR / BSB)
Tue 06:26:10 PM 42.7068 -73.2975 263° West 432 497 19,000  Level FlightAware ADS-B (KBKF)
Tue 06:27:01 PM 42.7344 -72.9919 83° East 437 503 19,000 -245 Level FlightAware ADS-B (KBKF)
Tue 06:27:48 PM 42.7485 -72.8319 83° East 430 495 18,600 -1,231 Descending FlightAware ADS-B (KBKF)
Tue 06:28:19 PM 42.7567 -72.7365 83° East 431 496 17,400 -2,113 Descending FlightAware ADS-B (KBKF)
Tue 06:28:59 PM 42.7658 -72.6311 83° East 422 486 16,100 -1,944 Descending FlightAware ADS-B (KBKF)
Tue 06:29:30 PM 42.7729 -72.5485 83° East 415 478 15,100 -1,833 Descending FlightAware ADS-B (KBKF)
Tue 06:30:11 PM 42.7815 -72.4443 84° East 408 470 13,900 -2,000 Descending FlightAware ADS-B (KBKF)
Tue 06:30:24 PM 42.7831 -72.4251 84° East 404 465 13,300 -1,915 Descending FlightAware ADS-B (KSNC)
Tue 06:30:58 PM 42.7905 -72.3409 83° East 394 453 12,400 -1,667 Descending FlightAware ADS-B (KBKF)
Tue 06:31:36 PM 42.7939 -72.2975 84° East 386 444 11,300 -1,690 Descending FlightAware ADS-B (KBKF)
Tue 06:32:09 PM 42.8025 -72.1879 84° East 373 429 10,400 -1,161 Descending FlightAware ADS-B (KBKF)
Tue 06:32:38 PM 42.8066 -72.0954 86° East 354 407 10,100 -471 Descending FlightAware ADS-B (KBKF)
Tue 06:33:00 PM 42.7982 -72.0591 107° East 342 394 10,000 -154 Descending FlightAware ADS-B (KBKF)
Tue 06:33:17 PM 42.7863 -72.0125 109° East 320 368 10,000 -324 Level FlightAware ADS-B
Tue 06:33:37 PM 42.7769 -71.9749 109° East 309 356 9,800 -1,059 Descending FlightAware ADS-B
Tue 06:34:08 PM 42.7641 -71.9185 107° East 292 336 9,100 -1,680 Descending FlightAware ADS-B
Tue 06:34:27 PM 42.7635 -71.8864 91° East 287 330 8,400 -2,500 Descending FlightAware ADS-B (KBKF)
Tue 06:34:44 PM 42.7634 -71.8751 91° East 286 329 7,600 -2,357 Descending FlightAware ADS-B (KBKF)
Tue 06:34:55 PM 42.7622 -71.8349 92° East 282 325 7,300 -2,063 Descending FlightAware ADS-B
Tue 06:35:16 PM 42.7609 -71.7968 93° East 278 320 6,500 -2,233 Descending FlightAware ADS-B
Tue 06:35:38 PM 42.7599 -71.7589 92° East 276 318 5,700 -2,129 Descending FlightAware ADS-B
Tue 06:35:47 PM 42.7596 -71.7451 92° East 274 315 5,400 -1,895 Descending FlightAware ADS-B (KBOS)
Tue 06:35:57 PM 42.7596 -71.7451 92° East 273 314 5,100 -2,063 Descending FlightAware ADS-B (KBOS)
Tue 06:36:19 PM 42.7595 -71.6890 90° East 273 314 4,300 -2,143 Descending FlightAware ADS-B
Tue 06:36:39 PM 42.7595 -71.6548 90° East 273 314 3,600 -1,650 Descending FlightAware ADS-B
Tue 06:36:59 PM 42.7593 -71.6193 90° East 268 308 3,200 -750 Descending FlightAware ADS-B
Tue 06:37:19 PM 42.7594 -71.5869 90° East 255 293 3,100 -308 Descending FlightAware ADS-B
Tue 06:37:38 PM 42.7596 -71.5584 89° East 243 280 3,000 -486 Descending FlightAware ADS-B
Tue 06:37:56 PM 42.7602 -71.5312 88° East 236 272 2,800 -293 Descending FlightAware ADS-B
Tue 06:38:19 PM 42.7608 -71.4986 89° East 218 251 2,800 -419 Level FlightAware ADS-B
Tue 06:38:39 PM 42.7611 -71.4717 89° East 210 242 2,500 -750 Descending FlightAware ADS-B
Tue 06:38:59 PM 42.7611 -71.4449 90° East 212 244 2,300 -300 Descending FlightAware ADS-B
Tue 06:39:19 PM 42.7624 -71.4179 86° East 212 244 2,300  Level FlightAware ADS-B
Tue 06:39:28 PM 42.7659 -71.4070 67° East 203 234 2,300  Level FlightAware ADS-B
Tue 06:39:50 PM 42.7757 -71.3816 62° Northeast 208 239 2,300 143 Level FlightAware ADS-B
Tue 06:40:10 PM 42.7838 -71.3598 63° Northeast 183 211 2,400  Climbing FlightAware ADS-B
Tue 06:40:29 PM 42.7918 -71.3435 56° Northeast 151 174 2,300 -250 Descending FlightAware ADS-B
Tue 06:40:34 PM 42.7939 -71.3423 24° Northeast 143 165 2,300  Level FlightAware ADS-B (KBOS)
Tue 06:40:40 PM 42.7982 -71.3421 North 132 152 2,300  Level FlightAware ADS-B
Tue 06:40:50 PM 42.8006 -71.3436 336° Northwest 127 146 2,300  Level FlightAware ADS-B (KBOS)
Tue 06:41:00 PM 42.8062 -71.3533 308° West 128 147 2,300  Level FlightAware ADS-B (KBOS)
Tue 06:41:10 PM 42.8104 -71.3594 313° West 120 138 2,300  Level FlightAware ADS-B
Tue 06:41:20 PM 42.8145 -71.3635 324° Northwest 125 144 2,300 194 Level FlightAware ADS-B (KBOS)
Tue 06:41:41 PM 42.8261 -71.3710 334° Northwest 124 143 2,400 -429 Climbing FlightAware ADS-B
Tue 06:42:02 PM 42.8365 -71.3768 338° Northwest 105 121 2,000 -878 Descending FlightAware ADS-B
Tue 06:42:22 PM 42.8460 -71.3828 335° Northwest 113 130 1,800 -750 Descending FlightAware ADS-B
Tue 06:42:42 PM 42.8553 -71.3886 335° Northwest 105 121 1,500 -750 Descending FlightAware ADS-B
Tue 06:43:02 PM 42.8648 -71.3943 336° Northwest 112 129 1,300 -600 Descending FlightAware ADS-B
Tue 06:43:22 PM 42.8744 -71.3999 337° Northwest 106 122 1,100 -600 Descending FlightAware ADS-B
Tue 06:43:42 PM 42.8842 -71.4056 337° Northwest 106 122 900 -632 Descending FlightAware ADS-B
Tue 06:44:00 PM 42.8931 -71.4108 337° Northwest 111 128 700 -632 Descending FlightAware ADS-B
Tue 06:44:20 PM 42.9031 -71.4167 337° Northwest 121 139 500 -600 Descending FlightAware ADS-B
Tue 06:44:40 PM 42.9134 -71.4228 336° Northwest 125 144 300 -207 Descending FlightAware ADS-B
Tue 06:45:18 PM 42.9275 -71.4314 336° Northwest 120 138 300  Level Boston Center
Tue 06:47:00 PM 42.9167 -71.4333 316° Northwest  Level FlightAware Approximate

Login

Don't have an account? Register now (free) for customized features, flight alerts, and more!